RWZ4318 LLBG-URMM
Flight info
| Callsign | RWZ4318 |
|---|---|
| Flight time | 2h 59m |
| Altitude | 36000 |
| Route | SUVAS N128 TEZAK L324 SAFTA DCT TOMBI UA16 AYT UW77 BAG UT61 SIN UW96 ODIRA/K0843F400 G487 ERSAR B967 ABELA ABELA5B |
| Aircraft | SU95/M-SDE3GILORVW/S |
Departure
| Time | 2026-05-07 12:37 |
|---|---|
| Airport | Ben Gurion International Airport (LLBG) |
Arrival
| Time | 2026-05-07 15:36 |
|---|---|
| Airport | Mineralnye Vody Airport (URMM) |
| Time | Latitude | Longitude | Altitude | Speed | Heading |
|---|---|---|---|---|---|
| 2026-05-07 12:03 | 32.00058 | 34.87758 | 116 ft | 0 kts | 122° |
| 2026-05-07 12:20 | 32.00070 | 34.87734 | 115 ft | 3 kts | 118° |
| 2026-05-07 12:21 | 32.00082 | 34.87705 | 116 ft | 4 kts | 112° |
| 2026-05-07 12:21 | 32.00089 | 34.87675 | 117 ft | 4 kts | 90° |
| 2026-05-07 12:21 | 32.00081 | 34.87656 | 117 ft | 1 kts | 31° |
| 2026-05-07 12:21 | 32.00078 | 34.87653 | 114 ft | 0 kts | 31° |
| 2026-05-07 12:27 | 32.00108 | 34.87675 | 115 ft | 13 kts | 31° |
| 2026-05-07 12:27 | 32.00225 | 34.87757 | 117 ft | 22 kts | 30° |
| 2026-05-07 12:27 | 32.00362 | 34.87857 | 116 ft | 19 kts | 31° |
| 2026-05-07 12:27 | 32.00430 | 34.87906 | 117 ft | 18 kts | 31° |
| 2026-05-07 12:28 | 32.00453 | 34.87922 | 117 ft | 18 kts | 31° |
| 2026-05-07 12:28 | 32.00477 | 34.87939 | 116 ft | 3 kts | 31° |
| 2026-05-07 12:28 | 32.00532 | 34.87951 | 114 ft | 11 kts | 327° |
| 2026-05-07 12:28 | 32.00603 | 34.87931 | 117 ft | 11 kts | 22° |
| 2026-05-07 12:29 | 32.00639 | 34.87954 | 117 ft | 1 kts | 33° |
| 2026-05-07 12:29 | 32.00645 | 34.87959 | 117 ft | 3 kts | 33° |
| 2026-05-07 12:29 | 32.00675 | 34.87982 | 115 ft | 8 kts | 33° |
| 2026-05-07 12:29 | 32.00730 | 34.88022 | 117 ft | 11 kts | 31° |
| 2026-05-07 12:30 | 32.00806 | 34.88075 | 116 ft | 14 kts | 31° |
| 2026-05-07 12:30 | 32.00901 | 34.88145 | 115 ft | 18 kts | 31° |
| 2026-05-07 12:30 | 32.01016 | 34.88228 | 117 ft | 21 kts | 31° |
| 2026-05-07 12:30 | 32.01148 | 34.88322 | 117 ft | 23 kts | 31° |
| 2026-05-07 12:31 | 32.01288 | 34.88434 | 114 ft | 26 kts | 41° |
| 2026-05-07 12:31 | 32.01409 | 34.88596 | 117 ft | 28 kts | 56° |
| 2026-05-07 12:31 | 32.01491 | 34.88810 | 115 ft | 24 kts | 76° |
| 2026-05-07 12:31 | 32.01499 | 34.88858 | 117 ft | 10 kts | 74° |
| 2026-05-07 12:32 | 32.01514 | 34.88964 | 117 ft | 15 kts | 79° |
| 2026-05-07 12:32 | 32.01536 | 34.89099 | 117 ft | 18 kts | 79° |
| 2026-05-07 12:32 | 32.01553 | 34.89210 | 116 ft | 7 kts | 80° |
| 2026-05-07 12:32 | 32.01562 | 34.89243 | 115 ft | 5 kts | 49° |
| 2026-05-07 12:33 | 32.01673 | 34.89256 | 115 ft | 13 kts | 348° |
| 2026-05-07 12:33 | 32.01760 | 34.89220 | 115 ft | 11 kts | 297° |
| 2026-05-07 12:33 | 32.01761 | 34.89178 | 115 ft | 1 kts | 256° |
| 2026-05-07 12:34 | 32.01760 | 34.89175 | 115 ft | 0 kts | 257° |
| 2026-05-07 12:36 | 32.01729 | 34.89002 | 117 ft | 71 kts | 259° |
| 2026-05-07 12:36 | 32.01580 | 34.88012 | 138 ft | 168 kts | 260° |
| 2026-05-07 12:37 | 32.01357 | 34.86514 | 743 ft | 204 kts | 259° |
| 2026-05-07 12:37 | 32.01027 | 34.84744 | 1330 ft | 218 kts | 257° |
| 2026-05-07 12:37 | 32.00700 | 34.83182 | 1845 ft | 176 kts | 256° |
| 2026-05-07 12:37 | 32.00386 | 34.81717 | 2439 ft | 196 kts | 256° |
| 2026-05-07 12:38 | 32.00057 | 34.80143 | 3048 ft | 199 kts | 257° |
| 2026-05-07 12:38 | 31.99729 | 34.78537 | 3651 ft | 202 kts | 257° |
| 2026-05-07 12:38 | 31.99387 | 34.76833 | 4461 ft | 227 kts | 257° |
| 2026-05-07 12:38 | 31.99235 | 34.74887 | 5547 ft | 250 kts | 276° |
| 2026-05-07 12:39 | 31.99712 | 34.72889 | 6720 ft | 264 kts | 290° |
| 2026-05-07 12:39 | 32.00373 | 34.70838 | 7465 ft | 270 kts | 290° |
| 2026-05-07 12:39 | 32.01010 | 34.68850 | 7883 ft | 279 kts | 290° |
| 2026-05-07 12:39 | 32.01704 | 34.66653 | 8964 ft | 287 kts | 290° |
| 2026-05-07 12:40 | 32.02349 | 34.64487 | 10561 ft | 285 kts | 285° |
| 2026-05-07 12:40 | 32.02757 | 34.62115 | 11547 ft | 306 kts | 276° |
| 2026-05-07 12:40 | 32.02896 | 34.59534 | 12531 ft | 321 kts | 273° |
| 2026-05-07 12:40 | 32.02980 | 34.57757 | 13271 ft | 331 kts | 273° |
| 2026-05-07 12:41 | 32.03114 | 34.55038 | 14564 ft | 331 kts | 274° |
| 2026-05-07 12:41 | 32.03298 | 34.51444 | 16351 ft | 335 kts | 274° |
| 2026-05-07 12:41 | 32.03397 | 34.49558 | 16991 ft | 343 kts | 275° |
| 2026-05-07 12:41 | 32.03544 | 34.46765 | 18056 ft | 351 kts | 275° |
| 2026-05-07 12:42 | 32.03697 | 34.43852 | 19073 ft | 357 kts | 275° |
| 2026-05-07 12:42 | 32.03861 | 34.40930 | 20143 ft | 359 kts | 275° |
| 2026-05-07 12:42 | 32.04033 | 34.37965 | 21184 ft | 364 kts | 275° |
| 2026-05-07 12:42 | 32.04207 | 34.34981 | 22217 ft | 368 kts | 275° |
| 2026-05-07 12:43 | 32.04382 | 34.31943 | 23253 ft | 373 kts | 275° |
| 2026-05-07 12:43 | 32.04557 | 34.28872 | 24177 ft | 377 kts | 275° |
| 2026-05-07 12:43 | 32.04795 | 34.25817 | 25027 ft | 380 kts | 280° |
| 2026-05-07 12:43 | 32.05423 | 34.22771 | 25859 ft | 384 kts | 289° |
| 2026-05-07 12:44 | 32.06483 | 34.19855 | 26673 ft | 389 kts | 297° |
| 2026-05-07 12:44 | 32.07867 | 34.17102 | 27451 ft | 394 kts | 300° |
| 2026-05-07 12:44 | 32.09276 | 34.14353 | 28198 ft | 398 kts | 300° |
| 2026-05-07 12:44 | 32.10716 | 34.11530 | 28928 ft | 403 kts | 300° |
| 2026-05-07 12:45 | 32.12163 | 34.08685 | 29635 ft | 407 kts | 299° |
| 2026-05-07 12:45 | 32.13630 | 34.05795 | 30309 ft | 412 kts | 299° |
| 2026-05-07 12:45 | 32.15108 | 34.02881 | 30952 ft | 415 kts | 299° |
| 2026-05-07 12:45 | 32.16599 | 33.99943 | 31587 ft | 418 kts | 300° |
| 2026-05-07 12:46 | 32.18227 | 33.97119 | 32176 ft | 423 kts | 304° |
| 2026-05-07 12:46 | 32.19951 | 33.94273 | 32766 ft | 426 kts | 304° |
| 2026-05-07 12:46 | 32.21674 | 33.91419 | 33472 ft | 426 kts | 304° |
| 2026-05-07 12:46 | 32.23386 | 33.88579 | 34219 ft | 424 kts | 304° |
| 2026-05-07 12:47 | 32.25104 | 33.85727 | 34852 ft | 423 kts | 304° |
| 2026-05-07 12:47 | 32.26810 | 33.82894 | 35433 ft | 423 kts | 304° |
| 2026-05-07 12:47 | 32.28495 | 33.80092 | 35936 ft | 422 kts | 304° |
| 2026-05-07 12:47 | 32.30194 | 33.77265 | 36089 ft | 421 kts | 304° |
| 2026-05-07 12:48 | 32.33557 | 33.71663 | 36100 ft | 420 kts | 304° |
| 2026-05-07 12:48 | 32.36943 | 33.66013 | 36106 ft | 420 kts | 304° |
| 2026-05-07 12:49 | 32.40305 | 33.60394 | 36102 ft | 420 kts | 304° |
| 2026-05-07 12:49 | 32.43689 | 33.54731 | 36102 ft | 420 kts | 304° |
| 2026-05-07 12:50 | 32.47042 | 33.49111 | 36103 ft | 420 kts | 304° |
| 2026-05-07 12:50 | 32.50425 | 33.43432 | 36104 ft | 420 kts | 304° |
| 2026-05-07 12:51 | 32.53779 | 33.37795 | 36108 ft | 420 kts | 304° |
| 2026-05-07 12:51 | 32.57157 | 33.32107 | 36108 ft | 420 kts | 304° |
| 2026-05-07 12:52 | 32.60515 | 33.26446 | 36110 ft | 420 kts | 304° |
| 2026-05-07 12:52 | 32.63884 | 33.20756 | 36113 ft | 420 kts | 304° |
| 2026-05-07 12:53 | 32.67227 | 33.15102 | 36115 ft | 420 kts | 304° |
| 2026-05-07 12:53 | 32.70587 | 33.09410 | 36112 ft | 420 kts | 304° |
| 2026-05-07 12:54 | 32.73951 | 33.03704 | 36117 ft | 420 kts | 304° |
| 2026-05-07 12:54 | 32.77279 | 32.98051 | 36114 ft | 420 kts | 304° |
| 2026-05-07 12:55 | 32.80630 | 32.92348 | 36116 ft | 419 kts | 304° |
| 2026-05-07 12:55 | 32.83950 | 32.86689 | 36121 ft | 419 kts | 304° |
| 2026-05-07 12:56 | 32.87295 | 32.80981 | 36117 ft | 418 kts | 304° |
| 2026-05-07 12:56 | 32.90626 | 32.75288 | 36115 ft | 418 kts | 304° |
| 2026-05-07 12:57 | 32.93914 | 32.69658 | 36115 ft | 417 kts | 304° |
| 2026-05-07 12:57 | 32.97229 | 32.63975 | 36114 ft | 417 kts | 304° |
| 2026-05-07 12:58 | 33.00542 | 32.58285 | 36121 ft | 417 kts | 304° |
| 2026-05-07 12:58 | 33.03839 | 32.52616 | 36119 ft | 417 kts | 304° |
| 2026-05-07 12:59 | 33.07144 | 32.46923 | 36120 ft | 416 kts | 304° |
| 2026-05-07 12:59 | 33.10427 | 32.41260 | 36119 ft | 416 kts | 304° |
| 2026-05-07 13:00 | 33.13712 | 32.35582 | 36117 ft | 415 kts | 304° |
| 2026-05-07 13:00 | 33.16985 | 32.29918 | 36114 ft | 413 kts | 304° |
| 2026-05-07 13:01 | 33.20231 | 32.24294 | 36103 ft | 411 kts | 304° |
| 2026-05-07 13:01 | 33.23459 | 32.18694 | 36097 ft | 410 kts | 304° |
| 2026-05-07 13:02 | 33.26689 | 32.13079 | 36093 ft | 409 kts | 304° |
| 2026-05-07 13:02 | 33.29913 | 32.07466 | 36089 ft | 409 kts | 304° |
| 2026-05-07 13:03 | 33.33133 | 32.01850 | 36101 ft | 408 kts | 305° |
| 2026-05-07 13:03 | 33.36327 | 31.96274 | 36104 ft | 409 kts | 305° |
| 2026-05-07 13:04 | 33.39541 | 31.90653 | 36109 ft | 409 kts | 305° |
| 2026-05-07 13:04 | 33.42761 | 31.85014 | 36115 ft | 410 kts | 305° |
| 2026-05-07 13:05 | 33.46415 | 31.79857 | 36107 ft | 410 kts | 321° |
| 2026-05-07 13:05 | 33.48818 | 31.78013 | 36137 ft | 411 kts | 332° |
| 2026-05-07 13:05 | 33.51490 | 31.76787 | 36135 ft | 413 kts | 341° |
| 2026-05-07 13:06 | 33.56975 | 31.74810 | 36141 ft | 413 kts | 341° |
| 2026-05-07 13:06 | 33.62493 | 31.72813 | 36140 ft | 413 kts | 341° |
| 2026-05-07 13:07 | 33.68011 | 31.70812 | 36142 ft | 413 kts | 341° |
| 2026-05-07 13:07 | 33.73521 | 31.68809 | 36141 ft | 413 kts | 341° |
| 2026-05-07 13:08 | 33.78993 | 31.66819 | 36139 ft | 413 kts | 341° |
| 2026-05-07 13:08 | 33.84479 | 31.64818 | 36141 ft | 413 kts | 341° |
| 2026-05-07 13:09 | 33.89976 | 31.62810 | 36140 ft | 412 kts | 341° |
| 2026-05-07 13:09 | 33.95485 | 31.60797 | 36136 ft | 411 kts | 341° |
| 2026-05-07 13:10 | 34.00941 | 31.58800 | 36133 ft | 411 kts | 341° |
| 2026-05-07 13:10 | 34.06397 | 31.56800 | 36126 ft | 411 kts | 341° |
| 2026-05-07 13:11 | 34.11872 | 31.54790 | 36128 ft | 410 kts | 341° |
| 2026-05-07 13:11 | 34.17342 | 31.52780 | 36132 ft | 410 kts | 341° |
| 2026-05-07 13:12 | 34.22781 | 31.50777 | 36145 ft | 409 kts | 341° |
| 2026-05-07 13:12 | 34.28210 | 31.48777 | 36141 ft | 409 kts | 341° |
| 2026-05-07 13:13 | 34.33683 | 31.46757 | 36142 ft | 408 kts | 341° |
| 2026-05-07 13:13 | 34.39073 | 31.44765 | 36140 ft | 408 kts | 341° |
| 2026-05-07 13:14 | 34.44507 | 31.42754 | 36135 ft | 407 kts | 341° |
| 2026-05-07 13:14 | 34.49932 | 31.40744 | 36131 ft | 407 kts | 341° |
| 2026-05-07 13:15 | 34.55315 | 31.38746 | 36144 ft | 406 kts | 341° |
| 2026-05-07 13:15 | 34.60753 | 31.36725 | 36131 ft | 407 kts | 341° |
| 2026-05-07 13:16 | 34.66159 | 31.34714 | 36128 ft | 407 kts | 341° |
| 2026-05-07 13:16 | 34.71547 | 31.32706 | 36128 ft | 407 kts | 341° |
| 2026-05-07 13:17 | 34.76913 | 31.30704 | 36128 ft | 407 kts | 341° |
| 2026-05-07 13:17 | 34.82304 | 31.28690 | 36128 ft | 408 kts | 341° |
| 2026-05-07 13:18 | 34.87735 | 31.26658 | 36131 ft | 408 kts | 341° |
| 2026-05-07 13:18 | 34.93173 | 31.24620 | 36133 ft | 408 kts | 341° |
| 2026-05-07 13:19 | 34.98577 | 31.22594 | 36151 ft | 408 kts | 341° |
| 2026-05-07 13:19 | 35.04002 | 31.20555 | 36152 ft | 407 kts | 340° |
| 2026-05-07 13:20 | 35.09417 | 31.18518 | 36144 ft | 407 kts | 341° |
| 2026-05-07 13:20 | 35.14816 | 31.16484 | 36141 ft | 407 kts | 341° |
| 2026-05-07 13:21 | 35.20235 | 31.14440 | 36142 ft | 407 kts | 341° |
| 2026-05-07 13:21 | 35.25619 | 31.12406 | 36138 ft | 406 kts | 340° |
| 2026-05-07 13:22 | 35.31049 | 31.10352 | 36133 ft | 406 kts | 340° |
| 2026-05-07 13:22 | 35.36440 | 31.08309 | 36132 ft | 406 kts | 340° |
| 2026-05-07 13:23 | 35.41824 | 31.06267 | 36132 ft | 406 kts | 340° |
| 2026-05-07 13:23 | 35.47247 | 31.04207 | 36131 ft | 406 kts | 340° |
| 2026-05-07 13:24 | 35.52628 | 31.02159 | 36130 ft | 406 kts | 340° |
| 2026-05-07 13:24 | 35.58005 | 31.00111 | 36124 ft | 406 kts | 340° |
| 2026-05-07 13:25 | 35.63398 | 30.98053 | 36126 ft | 406 kts | 340° |
| 2026-05-07 13:25 | 35.68808 | 30.95986 | 36126 ft | 407 kts | 340° |
| 2026-05-07 13:26 | 35.74193 | 30.93927 | 36153 ft | 406 kts | 340° |
| 2026-05-07 13:26 | 35.79604 | 30.91853 | 36143 ft | 406 kts | 340° |
| 2026-05-07 13:27 | 35.84971 | 30.89794 | 36139 ft | 406 kts | 340° |
| 2026-05-07 13:27 | 35.90342 | 30.87730 | 36139 ft | 405 kts | 340° |
| 2026-05-07 13:28 | 35.94841 | 30.85999 | 36128 ft | 405 kts | 340° |
| 2026-05-07 13:28 | 36.00226 | 30.83926 | 36120 ft | 404 kts | 340° |
| 2026-05-07 13:29 | 36.05703 | 30.82487 | 36124 ft | 408 kts | 351° |
| 2026-05-07 13:29 | 36.11415 | 30.82218 | 36120 ft | 410 kts | 354° |
| 2026-05-07 13:30 | 36.17100 | 30.82019 | 36112 ft | 409 kts | 354° |
| 2026-05-07 13:30 | 36.22783 | 30.81823 | 36108 ft | 409 kts | 354° |
| 2026-05-07 13:31 | 36.28414 | 30.81634 | 36121 ft | 410 kts | 354° |
| 2026-05-07 13:31 | 36.34127 | 30.81444 | 36115 ft | 410 kts | 354° |
| 2026-05-07 13:32 | 36.39829 | 30.81253 | 36113 ft | 409 kts | 354° |
| 2026-05-07 13:32 | 36.45533 | 30.81060 | 36109 ft | 409 kts | 354° |
| 2026-05-07 13:33 | 36.51200 | 30.80864 | 36103 ft | 409 kts | 354° |
| 2026-05-07 13:33 | 36.56868 | 30.80668 | 36100 ft | 409 kts | 354° |
| 2026-05-07 13:34 | 36.65417 | 30.80373 | 36101 ft | 409 kts | 354° |
| 2026-05-07 13:35 | 36.71077 | 30.80177 | 36096 ft | 409 kts | 354° |
| 2026-05-07 13:35 | 36.76757 | 30.79980 | 36096 ft | 409 kts | 354° |
| 2026-05-07 13:36 | 36.82452 | 30.79783 | 36101 ft | 409 kts | 354° |
| 2026-05-07 13:36 | 36.88155 | 30.79608 | 36107 ft | 410 kts | 357° |
| 2026-05-07 13:37 | 36.93834 | 30.80902 | 36098 ft | 422 kts | 14° |
| 2026-05-07 13:37 | 36.99152 | 30.84184 | 36099 ft | 428 kts | 22° |
| 2026-05-07 13:38 | 37.04404 | 30.87705 | 36101 ft | 428 kts | 22° |
| 2026-05-07 13:38 | 37.09639 | 30.91217 | 36107 ft | 429 kts | 22° |
| 2026-05-07 13:39 | 37.14939 | 30.94782 | 36114 ft | 430 kts | 22° |
| 2026-05-07 13:39 | 37.20199 | 30.98329 | 36119 ft | 430 kts | 22° |
| 2026-05-07 13:40 | 37.25450 | 31.01873 | 36148 ft | 430 kts | 22° |
| 2026-05-07 13:40 | 37.30730 | 31.05441 | 36143 ft | 431 kts | 22° |
| 2026-05-07 13:41 | 37.35986 | 31.08995 | 36153 ft | 431 kts | 21° |
| 2026-05-07 13:41 | 37.41407 | 31.12221 | 36183 ft | 429 kts | 20° |
| 2026-05-07 13:42 | 37.46821 | 31.15425 | 36165 ft | 427 kts | 20° |
| 2026-05-07 13:42 | 37.52149 | 31.18608 | 36142 ft | 425 kts | 20° |
| 2026-05-07 13:43 | 37.57522 | 31.21778 | 36157 ft | 425 kts | 19° |
| 2026-05-07 13:43 | 37.62869 | 31.24942 | 36176 ft | 425 kts | 19° |
| 2026-05-07 13:44 | 37.68201 | 31.28112 | 36175 ft | 425 kts | 20° |
| 2026-05-07 13:44 | 37.73544 | 31.31299 | 36187 ft | 425 kts | 20° |
| 2026-05-07 13:45 | 37.78859 | 31.34475 | 36184 ft | 424 kts | 20° |
| 2026-05-07 13:45 | 37.84197 | 31.37666 | 36187 ft | 424 kts | 19° |
| 2026-05-07 13:46 | 37.89507 | 31.40845 | 36184 ft | 423 kts | 19° |
| 2026-05-07 13:46 | 37.94844 | 31.44047 | 36190 ft | 423 kts | 19° |
| 2026-05-07 13:47 | 38.00145 | 31.47232 | 36184 ft | 424 kts | 19° |
| 2026-05-07 13:47 | 38.05458 | 31.50430 | 36189 ft | 424 kts | 19° |
| 2026-05-07 13:48 | 38.10796 | 31.53648 | 36203 ft | 424 kts | 20° |
| 2026-05-07 13:48 | 38.16087 | 31.56918 | 36194 ft | 425 kts | 20° |
| 2026-05-07 13:49 | 38.21388 | 31.60277 | 36190 ft | 425 kts | 20° |
| 2026-05-07 13:49 | 38.26699 | 31.63636 | 36186 ft | 425 kts | 20° |
| 2026-05-07 13:50 | 38.31967 | 31.66963 | 36184 ft | 424 kts | 20° |
| 2026-05-07 13:50 | 38.37258 | 31.70308 | 36182 ft | 424 kts | 20° |
| 2026-05-07 13:51 | 38.42513 | 31.73636 | 36183 ft | 424 kts | 20° |
| 2026-05-07 13:51 | 38.47824 | 31.77006 | 36190 ft | 424 kts | 20° |
| 2026-05-07 13:52 | 38.52917 | 31.80242 | 36199 ft | 424 kts | 20° |
| 2026-05-07 13:52 | 38.58142 | 31.83566 | 36173 ft | 424 kts | 20° |
| 2026-05-07 13:53 | 38.63413 | 31.86927 | 36179 ft | 425 kts | 21° |
| 2026-05-07 13:53 | 38.68663 | 31.90279 | 36173 ft | 425 kts | 21° |
| 2026-05-07 13:54 | 38.73941 | 31.93655 | 36174 ft | 425 kts | 21° |
| 2026-05-07 13:54 | 38.79224 | 31.97040 | 36175 ft | 425 kts | 21° |
| 2026-05-07 13:55 | 38.84529 | 32.00444 | 36177 ft | 425 kts | 21° |
| 2026-05-07 13:55 | 38.89778 | 32.03818 | 36176 ft | 425 kts | 21° |
| 2026-05-07 13:56 | 38.95083 | 32.07234 | 36172 ft | 425 kts | 21° |
| 2026-05-07 13:56 | 39.00373 | 32.10645 | 36162 ft | 425 kts | 21° |
| 2026-05-07 13:57 | 39.05653 | 32.14056 | 36161 ft | 426 kts | 21° |
| 2026-05-07 13:57 | 39.10931 | 32.17472 | 36168 ft | 426 kts | 21° |
| 2026-05-07 13:58 | 39.16230 | 32.20907 | 36168 ft | 426 kts | 21° |
| 2026-05-07 13:58 | 39.21526 | 32.24346 | 36169 ft | 426 kts | 21° |
| 2026-05-07 13:59 | 39.26808 | 32.27782 | 36175 ft | 426 kts | 21° |
| 2026-05-07 13:59 | 39.32081 | 32.31217 | 36168 ft | 426 kts | 21° |
| 2026-05-07 14:00 | 39.37391 | 32.34682 | 36167 ft | 426 kts | 21° |
| 2026-05-07 14:00 | 39.42667 | 32.38140 | 36180 ft | 426 kts | 21° |
| 2026-05-07 14:01 | 39.47943 | 32.41625 | 36176 ft | 426 kts | 21° |
| 2026-05-07 14:01 | 39.53204 | 32.45102 | 36163 ft | 425 kts | 21° |
| 2026-05-07 14:02 | 39.58476 | 32.48591 | 36168 ft | 425 kts | 21° |
| 2026-05-07 14:02 | 39.63738 | 32.52077 | 36158 ft | 424 kts | 22° |
| 2026-05-07 14:03 | 39.68954 | 32.55541 | 36142 ft | 423 kts | 21° |
| 2026-05-07 14:03 | 39.74209 | 32.59036 | 36157 ft | 423 kts | 22° |
| 2026-05-07 14:04 | 39.79438 | 32.62520 | 36165 ft | 423 kts | 21° |
| 2026-05-07 14:04 | 39.84686 | 32.66022 | 36155 ft | 423 kts | 21° |
| 2026-05-07 14:05 | 39.89911 | 32.69515 | 36151 ft | 423 kts | 21° |
| 2026-05-07 14:05 | 39.95138 | 32.73015 | 36149 ft | 422 kts | 21° |
| 2026-05-07 14:06 | 40.00371 | 32.76526 | 36146 ft | 422 kts | 21° |
| 2026-05-07 14:06 | 40.05550 | 32.80067 | 36145 ft | 424 kts | 25° |
| 2026-05-07 14:07 | 40.10311 | 32.84685 | 36150 ft | 432 kts | 35° |
| 2026-05-07 14:07 | 40.14893 | 32.89813 | 36148 ft | 431 kts | 34° |
| 2026-05-07 14:08 | 40.19457 | 32.94906 | 36164 ft | 431 kts | 34° |
| 2026-05-07 14:08 | 40.24010 | 33.00008 | 36147 ft | 432 kts | 34° |
| 2026-05-07 14:09 | 40.28547 | 33.05107 | 36145 ft | 432 kts | 34° |
| 2026-05-07 14:09 | 40.33100 | 33.10233 | 36141 ft | 433 kts | 35° |
| 2026-05-07 14:10 | 40.37688 | 33.15407 | 36142 ft | 434 kts | 35° |
| 2026-05-07 14:10 | 40.42267 | 33.20581 | 36128 ft | 434 kts | 35° |
| 2026-05-07 14:11 | 40.46837 | 33.25755 | 36127 ft | 434 kts | 35° |
| 2026-05-07 14:11 | 40.51388 | 33.30916 | 36123 ft | 435 kts | 36° |
| 2026-05-07 14:12 | 40.55990 | 33.36144 | 36121 ft | 435 kts | 36° |
| 2026-05-07 14:12 | 40.60561 | 33.41350 | 36119 ft | 435 kts | 36° |
| 2026-05-07 14:13 | 40.65104 | 33.46531 | 36118 ft | 434 kts | 36° |
| 2026-05-07 14:13 | 40.69664 | 33.51742 | 36108 ft | 434 kts | 36° |
| 2026-05-07 14:14 | 40.74227 | 33.56966 | 36110 ft | 433 kts | 36° |
| 2026-05-07 14:14 | 40.78793 | 33.62202 | 36102 ft | 434 kts | 36° |
| 2026-05-07 14:15 | 40.83330 | 33.67417 | 36104 ft | 434 kts | 36° |
| 2026-05-07 14:15 | 40.87125 | 33.71784 | 36108 ft | 435 kts | 36° |
| 2026-05-07 14:16 | 40.92437 | 33.77908 | 36103 ft | 436 kts | 37° |
| 2026-05-07 14:16 | 40.96232 | 33.82295 | 36106 ft | 435 kts | 37° |
| 2026-05-07 14:17 | 41.00799 | 33.87583 | 36093 ft | 435 kts | 37° |
| 2026-05-07 14:17 | 41.05330 | 33.92836 | 36096 ft | 435 kts | 37° |
| 2026-05-07 14:18 | 41.09889 | 33.98135 | 36083 ft | 436 kts | 37° |
| 2026-05-07 14:18 | 41.14439 | 34.03433 | 36094 ft | 437 kts | 37° |
| 2026-05-07 14:19 | 41.19014 | 34.08769 | 36113 ft | 438 kts | 37° |
| 2026-05-07 14:19 | 41.23605 | 34.14136 | 36101 ft | 439 kts | 37° |
| 2026-05-07 14:20 | 41.28174 | 34.19486 | 36102 ft | 440 kts | 37° |
| 2026-05-07 14:20 | 41.32767 | 34.24873 | 36091 ft | 440 kts | 37° |
| 2026-05-07 14:21 | 41.37361 | 34.30290 | 36111 ft | 440 kts | 37° |
| 2026-05-07 14:21 | 41.41950 | 34.35721 | 36113 ft | 440 kts | 37° |
| 2026-05-07 14:22 | 41.46500 | 34.41112 | 36110 ft | 440 kts | 37° |
| 2026-05-07 14:22 | 41.51087 | 34.46555 | 36116 ft | 440 kts | 38° |
| 2026-05-07 14:23 | 41.55633 | 34.51962 | 36111 ft | 439 kts | 38° |
| 2026-05-07 14:23 | 41.60205 | 34.57391 | 36109 ft | 438 kts | 38° |
| 2026-05-07 14:24 | 41.64754 | 34.62763 | 36115 ft | 438 kts | 38° |
| 2026-05-07 14:24 | 41.69325 | 34.68178 | 36109 ft | 437 kts | 38° |
| 2026-05-07 14:25 | 41.73872 | 34.73580 | 36108 ft | 437 kts | 38° |
| 2026-05-07 14:25 | 41.78393 | 34.78960 | 36127 ft | 437 kts | 38° |
| 2026-05-07 14:26 | 41.82940 | 34.84384 | 36130 ft | 436 kts | 38° |
| 2026-05-07 14:26 | 41.87485 | 34.89814 | 36126 ft | 436 kts | 38° |
| 2026-05-07 14:27 | 41.91976 | 34.95191 | 36146 ft | 435 kts | 38° |
| 2026-05-07 14:27 | 41.96501 | 35.00620 | 36146 ft | 435 kts | 38° |
| 2026-05-07 14:28 | 42.00908 | 35.06247 | 36149 ft | 439 kts | 45° |
| 2026-05-07 14:28 | 42.04371 | 35.13008 | 36147 ft | 445 kts | 58° |
| 2026-05-07 14:29 | 42.07199 | 35.20436 | 36155 ft | 445 kts | 59° |
| 2026-05-07 14:29 | 42.10027 | 35.27827 | 36158 ft | 445 kts | 59° |
| 2026-05-07 14:30 | 42.12845 | 35.35230 | 36157 ft | 445 kts | 59° |
| 2026-05-07 14:30 | 42.15663 | 35.42663 | 36164 ft | 445 kts | 59° |
| 2026-05-07 14:31 | 42.18493 | 35.50104 | 36155 ft | 445 kts | 59° |
| 2026-05-07 14:31 | 42.21299 | 35.57492 | 36160 ft | 445 kts | 59° |
| 2026-05-07 14:32 | 42.24114 | 35.64928 | 36161 ft | 446 kts | 60° |
| 2026-05-07 14:32 | 42.26943 | 35.72418 | 36171 ft | 446 kts | 60° |
| 2026-05-07 14:33 | 42.29748 | 35.79866 | 36160 ft | 446 kts | 60° |
| 2026-05-07 14:33 | 42.32565 | 35.87369 | 36166 ft | 447 kts | 60° |
| 2026-05-07 14:34 | 42.35357 | 35.94826 | 36170 ft | 447 kts | 60° |
| 2026-05-07 14:34 | 42.38152 | 36.02306 | 36185 ft | 447 kts | 61° |
| 2026-05-07 14:35 | 42.40967 | 36.09857 | 36191 ft | 447 kts | 61° |
| 2026-05-07 14:35 | 42.43757 | 36.17367 | 36180 ft | 447 kts | 61° |
| 2026-05-07 14:36 | 42.46536 | 36.24868 | 36187 ft | 447 kts | 61° |
| 2026-05-07 14:36 | 42.49327 | 36.32419 | 36187 ft | 447 kts | 62° |
| 2026-05-07 14:37 | 42.52112 | 36.39971 | 36183 ft | 447 kts | 62° |
| 2026-05-07 14:37 | 42.56255 | 36.51249 | 36181 ft | 447 kts | 62° |
| 2026-05-07 14:38 | 42.59020 | 36.58800 | 36180 ft | 447 kts | 62° |
| 2026-05-07 14:38 | 42.61769 | 36.66327 | 36179 ft | 447 kts | 62° |
| 2026-05-07 14:39 | 42.64526 | 36.73896 | 36178 ft | 447 kts | 62° |
| 2026-05-07 14:39 | 42.67278 | 36.81471 | 36179 ft | 447 kts | 62° |
| 2026-05-07 14:40 | 42.70027 | 36.89059 | 36186 ft | 447 kts | 62° |
| 2026-05-07 14:40 | 42.72511 | 36.96771 | 36182 ft | 447 kts | 65° |
| 2026-05-07 14:41 | 42.74919 | 37.04573 | 36181 ft | 447 kts | 65° |
| 2026-05-07 14:41 | 42.77315 | 37.12359 | 36181 ft | 447 kts | 65° |
| 2026-05-07 14:42 | 42.79711 | 37.20195 | 36180 ft | 447 kts | 65° |
| 2026-05-07 14:42 | 42.82080 | 37.27968 | 36192 ft | 447 kts | 66° |
| 2026-05-07 14:43 | 42.84462 | 37.35812 | 36189 ft | 446 kts | 66° |
| 2026-05-07 14:43 | 42.86836 | 37.43652 | 36186 ft | 446 kts | 66° |
| 2026-05-07 14:44 | 42.89182 | 37.51420 | 36183 ft | 446 kts | 66° |
| 2026-05-07 14:44 | 42.91544 | 37.59266 | 36190 ft | 445 kts | 66° |
| 2026-05-07 14:45 | 42.93881 | 37.67054 | 36185 ft | 445 kts | 66° |
| 2026-05-07 14:45 | 42.96223 | 37.74883 | 36182 ft | 444 kts | 66° |
| 2026-05-07 14:46 | 42.98557 | 37.82705 | 36180 ft | 444 kts | 66° |
| 2026-05-07 14:46 | 43.00858 | 37.90488 | 36187 ft | 443 kts | 66° |
| 2026-05-07 14:47 | 43.03161 | 37.98307 | 36184 ft | 443 kts | 66° |
| 2026-05-07 14:47 | 43.05431 | 38.06085 | 36182 ft | 443 kts | 67° |
| 2026-05-07 14:48 | 43.07698 | 38.13908 | 36183 ft | 442 kts | 67° |
| 2026-05-07 14:48 | 43.09961 | 38.21701 | 36191 ft | 442 kts | 67° |
| 2026-05-07 14:49 | 43.12259 | 38.29521 | 36194 ft | 442 kts | 67° |
| 2026-05-07 14:49 | 43.14547 | 38.37338 | 36187 ft | 441 kts | 67° |
| 2026-05-07 14:50 | 43.16819 | 38.45134 | 36188 ft | 441 kts | 67° |
| 2026-05-07 14:50 | 43.19068 | 38.52880 | 36181 ft | 441 kts | 67° |
| 2026-05-07 14:51 | 43.21320 | 38.60661 | 36185 ft | 441 kts | 67° |
| 2026-05-07 14:51 | 43.23572 | 38.68464 | 36183 ft | 440 kts | 67° |
| 2026-05-07 14:52 | 43.25821 | 38.76280 | 36182 ft | 440 kts | 67° |
| 2026-05-07 14:52 | 43.28053 | 38.84125 | 36181 ft | 440 kts | 68° |
| 2026-05-07 14:53 | 43.30243 | 38.91930 | 36194 ft | 440 kts | 68° |
| 2026-05-07 14:53 | 43.32450 | 38.99806 | 36184 ft | 440 kts | 68° |
| 2026-05-07 14:54 | 43.34624 | 39.07580 | 36180 ft | 440 kts | 68° |
| 2026-05-07 14:54 | 43.37140 | 39.15243 | 36181 ft | 439 kts | 64° |
| 2026-05-07 14:55 | 43.39699 | 39.22814 | 36187 ft | 439 kts | 64° |
| 2026-05-07 14:55 | 43.42273 | 39.30461 | 36189 ft | 439 kts | 64° |
| 2026-05-07 14:56 | 43.44822 | 39.38052 | 36194 ft | 439 kts | 64° |
| 2026-05-07 14:56 | 43.47390 | 39.45717 | 36196 ft | 439 kts | 64° |
| 2026-05-07 14:57 | 43.49928 | 39.53315 | 36195 ft | 439 kts | 64° |
| 2026-05-07 14:57 | 43.52478 | 39.60973 | 36193 ft | 439 kts | 64° |
| 2026-05-07 14:58 | 43.54994 | 39.68548 | 36196 ft | 439 kts | 64° |
| 2026-05-07 14:58 | 43.57509 | 39.76163 | 36189 ft | 439 kts | 65° |
| 2026-05-07 14:59 | 43.60002 | 39.83767 | 36201 ft | 439 kts | 65° |
| 2026-05-07 14:59 | 43.62507 | 39.91427 | 36197 ft | 439 kts | 65° |
| 2026-05-07 15:00 | 43.65017 | 39.99123 | 36201 ft | 439 kts | 65° |
| 2026-05-07 15:00 | 43.67512 | 40.06789 | 36195 ft | 439 kts | 65° |
| 2026-05-07 15:01 | 43.70013 | 40.14494 | 36186 ft | 439 kts | 65° |
| 2026-05-07 15:01 | 43.72510 | 40.22211 | 36193 ft | 439 kts | 65° |
| 2026-05-07 15:02 | 43.74995 | 40.29905 | 36194 ft | 439 kts | 65° |
| 2026-05-07 15:02 | 43.77067 | 40.36340 | 36193 ft | 439 kts | 65° |
| 2026-05-07 15:03 | 43.79957 | 40.45341 | 36194 ft | 440 kts | 65° |
| 2026-05-07 15:03 | 43.82021 | 40.51792 | 36205 ft | 439 kts | 65° |
| 2026-05-07 15:04 | 43.84494 | 40.59540 | 36196 ft | 439 kts | 65° |
| 2026-05-07 15:04 | 43.86922 | 40.67168 | 36197 ft | 438 kts | 65° |
| 2026-05-07 15:05 | 43.89343 | 40.74824 | 35773 ft | 429 kts | 66° |
| 2026-05-07 15:05 | 43.90522 | 40.78611 | 35241 ft | 423 kts | 66° |
| 2026-05-07 15:05 | 43.91665 | 40.82298 | 34815 ft | 417 kts | 66° |
| 2026-05-07 15:06 | 43.92801 | 40.85964 | 34446 ft | 411 kts | 66° |
| 2026-05-07 15:06 | 43.93923 | 40.89586 | 34035 ft | 405 kts | 66° |
| 2026-05-07 15:06 | 43.95032 | 40.93166 | 33525 ft | 401 kts | 66° |
| 2026-05-07 15:06 | 43.96129 | 40.96710 | 33014 ft | 397 kts | 66° |
| 2026-05-07 15:07 | 43.97211 | 41.00210 | 32517 ft | 393 kts | 66° |
| 2026-05-07 15:07 | 43.98289 | 41.03702 | 31986 ft | 390 kts | 66° |
| 2026-05-07 15:07 | 43.99353 | 41.07154 | 31500 ft | 386 kts | 66° |
| 2026-05-07 15:07 | 44.00391 | 41.10523 | 31013 ft | 382 kts | 66° |
| 2026-05-07 15:08 | 44.01419 | 41.13866 | 30545 ft | 378 kts | 66° |
| 2026-05-07 15:08 | 44.02447 | 41.17216 | 30015 ft | 374 kts | 66° |
| 2026-05-07 15:08 | 44.03468 | 41.20546 | 29391 ft | 371 kts | 66° |
| 2026-05-07 15:08 | 44.04465 | 41.23799 | 28780 ft | 369 kts | 66° |
| 2026-05-07 15:09 | 44.05467 | 41.27077 | 28172 ft | 367 kts | 66° |
| 2026-05-07 15:09 | 44.06464 | 41.30338 | 27563 ft | 364 kts | 66° |
| 2026-05-07 15:09 | 44.07454 | 41.33584 | 26943 ft | 362 kts | 66° |
| 2026-05-07 15:09 | 44.08437 | 41.36810 | 26353 ft | 360 kts | 66° |
| 2026-05-07 15:10 | 44.09389 | 41.39937 | 25776 ft | 358 kts | 66° |
| 2026-05-07 15:10 | 44.10334 | 41.43045 | 25212 ft | 356 kts | 66° |
| 2026-05-07 15:10 | 44.11240 | 41.46254 | 24605 ft | 355 kts | 71° |
| 2026-05-07 15:10 | 44.11856 | 41.49581 | 24045 ft | 355 kts | 78° |
| 2026-05-07 15:11 | 44.12166 | 41.52945 | 23441 ft | 354 kts | 84° |
| 2026-05-07 15:11 | 44.12391 | 41.56346 | 22869 ft | 350 kts | 83° |
| 2026-05-07 15:11 | 44.12623 | 41.59688 | 22303 ft | 347 kts | 83° |
| 2026-05-07 15:11 | 44.12856 | 41.63020 | 21746 ft | 343 kts | 83° |
| 2026-05-07 15:12 | 44.13081 | 41.66245 | 21209 ft | 340 kts | 83° |
| 2026-05-07 15:12 | 44.13307 | 41.69513 | 20672 ft | 337 kts | 83° |
| 2026-05-07 15:12 | 44.13528 | 41.72750 | 20147 ft | 335 kts | 83° |
| 2026-05-07 15:12 | 44.13747 | 41.75967 | 19627 ft | 332 kts | 83° |
| 2026-05-07 15:13 | 44.13961 | 41.79111 | 19136 ft | 330 kts | 83° |
| 2026-05-07 15:13 | 44.14175 | 41.82291 | 18619 ft | 328 kts | 83° |
| 2026-05-07 15:13 | 44.14388 | 41.85460 | 18070 ft | 325 kts | 83° |
| 2026-05-07 15:13 | 44.14591 | 41.88510 | 17536 ft | 323 kts | 83° |
| 2026-05-07 15:14 | 44.14798 | 41.91617 | 16980 ft | 321 kts | 83° |
| 2026-05-07 15:14 | 44.15003 | 41.94705 | 16465 ft | 318 kts | 83° |
| 2026-05-07 15:14 | 44.15205 | 41.97770 | 15941 ft | 316 kts | 83° |
| 2026-05-07 15:14 | 44.15401 | 42.00754 | 15457 ft | 313 kts | 83° |
| 2026-05-07 15:15 | 44.15595 | 42.03713 | 15213 ft | 311 kts | 83° |
| 2026-05-07 15:15 | 44.15792 | 42.06710 | 15150 ft | 313 kts | 83° |
| 2026-05-07 15:15 | 44.15988 | 42.09732 | 15149 ft | 313 kts | 83° |
| 2026-05-07 15:15 | 44.16185 | 42.12765 | 15157 ft | 313 kts | 83° |
| 2026-05-07 15:16 | 44.16379 | 42.15781 | 15154 ft | 313 kts | 83° |
| 2026-05-07 15:16 | 44.16571 | 42.18764 | 15154 ft | 313 kts | 83° |
| 2026-05-07 15:16 | 44.16760 | 42.21723 | 15151 ft | 313 kts | 83° |
| 2026-05-07 15:16 | 44.16953 | 42.24753 | 15149 ft | 313 kts | 83° |
| 2026-05-07 15:17 | 44.17143 | 42.27754 | 15153 ft | 312 kts | 83° |
| 2026-05-07 15:17 | 44.17332 | 42.30734 | 15155 ft | 313 kts | 83° |
| 2026-05-07 15:17 | 44.17523 | 42.33764 | 15154 ft | 312 kts | 83° |
| 2026-05-07 15:17 | 44.17710 | 42.36748 | 15157 ft | 316 kts | 83° |
| 2026-05-07 15:18 | 44.17899 | 42.39792 | 15147 ft | 318 kts | 83° |
| 2026-05-07 15:18 | 44.18086 | 42.42794 | 15146 ft | 313 kts | 83° |
| 2026-05-07 15:18 | 44.18272 | 42.45819 | 15146 ft | 314 kts | 84° |
| 2026-05-07 15:18 | 44.18459 | 42.48848 | 15146 ft | 314 kts | 84° |
| 2026-05-07 15:19 | 44.18645 | 42.51880 | 15150 ft | 314 kts | 84° |
| 2026-05-07 15:19 | 44.18830 | 42.54917 | 15148 ft | 314 kts | 84° |
| 2026-05-07 15:19 | 44.19061 | 42.57951 | 15148 ft | 313 kts | 78° |
| 2026-05-07 15:19 | 44.19683 | 42.60806 | 15143 ft | 312 kts | 65° |
| 2026-05-07 15:20 | 44.20746 | 42.63426 | 15143 ft | 311 kts | 55° |
| 2026-05-07 15:20 | 44.21956 | 42.65932 | 15140 ft | 311 kts | 56° |
| 2026-05-07 15:20 | 44.23162 | 42.68452 | 15139 ft | 311 kts | 56° |
| 2026-05-07 15:20 | 44.24363 | 42.70974 | 15137 ft | 311 kts | 56° |
| 2026-05-07 15:21 | 44.25561 | 42.73494 | 15133 ft | 311 kts | 56° |
| 2026-05-07 15:21 | 44.26743 | 42.75982 | 15136 ft | 311 kts | 56° |
| 2026-05-07 15:21 | 44.27919 | 42.78458 | 15134 ft | 306 kts | 56° |
| 2026-05-07 15:21 | 44.29096 | 42.80941 | 15133 ft | 307 kts | 56° |
| 2026-05-07 15:22 | 44.30277 | 42.83434 | 15135 ft | 307 kts | 56° |
| 2026-05-07 15:22 | 44.31456 | 42.85924 | 15135 ft | 307 kts | 57° |
| 2026-05-07 15:22 | 44.32619 | 42.88384 | 15135 ft | 307 kts | 56° |
| 2026-05-07 15:22 | 44.33796 | 42.90874 | 15135 ft | 307 kts | 57° |
| 2026-05-07 15:23 | 44.34960 | 42.93337 | 15129 ft | 307 kts | 57° |
| 2026-05-07 15:23 | 44.36127 | 42.95811 | 15129 ft | 307 kts | 57° |
| 2026-05-07 15:23 | 44.37301 | 42.98298 | 15129 ft | 307 kts | 57° |
| 2026-05-07 15:23 | 44.38477 | 43.00794 | 15128 ft | 307 kts | 57° |
| 2026-05-07 15:24 | 44.39632 | 43.03249 | 14965 ft | 304 kts | 56° |
| 2026-05-07 15:24 | 44.40781 | 43.05690 | 14554 ft | 298 kts | 56° |
| 2026-05-07 15:24 | 44.41920 | 43.08115 | 13935 ft | 298 kts | 56° |
| 2026-05-07 15:24 | 44.42911 | 43.10658 | 13229 ft | 298 kts | 71° |
| 2026-05-07 15:25 | 44.43174 | 43.13519 | 12539 ft | 301 kts | 93° |
| 2026-05-07 15:25 | 44.42597 | 43.16348 | 11919 ft | 303 kts | 116° |
| 2026-05-07 15:25 | 44.41532 | 43.18833 | 11288 ft | 303 kts | 120° |
| 2026-05-07 15:25 | 44.40417 | 43.21337 | 10696 ft | 302 kts | 121° |
| 2026-05-07 15:26 | 44.39298 | 43.23840 | 10213 ft | 302 kts | 120° |
| 2026-05-07 15:26 | 44.38189 | 43.26326 | 9695 ft | 303 kts | 120° |
| 2026-05-07 15:26 | 44.37087 | 43.28805 | 9220 ft | 302 kts | 120° |
| 2026-05-07 15:26 | 44.35981 | 43.31295 | 8745 ft | 300 kts | 120° |
| 2026-05-07 15:27 | 44.34881 | 43.33774 | 8296 ft | 298 kts | 120° |
| 2026-05-07 15:27 | 44.33789 | 43.36233 | 7829 ft | 297 kts | 120° |
| 2026-05-07 15:27 | 44.32708 | 43.38666 | 7353 ft | 297 kts | 120° |
| 2026-05-07 15:27 | 44.31622 | 43.41110 | 6969 ft | 293 kts | 120° |
| 2026-05-07 15:28 | 44.30454 | 43.43447 | 6489 ft | 293 kts | 134° |
| 2026-05-07 15:28 | 44.28807 | 43.44983 | 6022 ft | 292 kts | 159° |
| 2026-05-07 15:28 | 44.26800 | 43.45408 | 5505 ft | 290 kts | 187° |
| 2026-05-07 15:28 | 44.24910 | 43.44586 | 5065 ft | 282 kts | 211° |
| 2026-05-07 15:29 | 44.23194 | 43.43295 | 4727 ft | 277 kts | 208° |
| 2026-05-07 15:29 | 44.21494 | 43.42192 | 4577 ft | 260 kts | 207° |
| 2026-05-07 15:29 | 44.19905 | 43.41195 | 4435 ft | 240 kts | 207° |
| 2026-05-07 15:29 | 44.18436 | 43.40259 | 4302 ft | 223 kts | 207° |
| 2026-05-07 15:30 | 44.17096 | 43.39386 | 4133 ft | 211 kts | 208° |
| 2026-05-07 15:30 | 44.15807 | 43.38533 | 4015 ft | 198 kts | 209° |
| 2026-05-07 15:30 | 44.14594 | 43.37722 | 3979 ft | 193 kts | 209° |
| 2026-05-07 15:30 | 44.13409 | 43.36926 | 3965 ft | 184 kts | 209° |
| 2026-05-07 15:31 | 44.12253 | 43.36137 | 3981 ft | 185 kts | 213° |
| 2026-05-07 15:31 | 44.11435 | 43.34882 | 3867 ft | 172 kts | 251° |
| 2026-05-07 15:31 | 44.11449 | 43.33312 | 3480 ft | 167 kts | 289° |
| 2026-05-07 15:31 | 44.11953 | 43.31864 | 3116 ft | 164 kts | 301° |
| 2026-05-07 15:32 | 44.12571 | 43.30518 | 3004 ft | 167 kts | 303° |
| 2026-05-07 15:32 | 44.13199 | 43.29157 | 2969 ft | 167 kts | 302° |
| 2026-05-07 15:32 | 44.13803 | 43.27830 | 2991 ft | 167 kts | 301° |
| 2026-05-07 15:32 | 44.14420 | 43.26473 | 2981 ft | 166 kts | 301° |
| 2026-05-07 15:33 | 44.15039 | 43.25113 | 2989 ft | 166 kts | 301° |
| 2026-05-07 15:33 | 44.15655 | 43.23758 | 2986 ft | 165 kts | 302° |
| 2026-05-07 15:33 | 44.16275 | 43.22396 | 2981 ft | 166 kts | 301° |
| 2026-05-07 15:33 | 44.16883 | 43.21058 | 2880 ft | 167 kts | 301° |
| 2026-05-07 15:34 | 44.17493 | 43.19715 | 2652 ft | 165 kts | 302° |
| 2026-05-07 15:34 | 44.18091 | 43.18400 | 2426 ft | 153 kts | 301° |
| 2026-05-07 15:34 | 44.18658 | 43.17152 | 2232 ft | 153 kts | 301° |
| 2026-05-07 15:34 | 44.19220 | 43.15915 | 2024 ft | 156 kts | 302° |
| 2026-05-07 15:35 | 44.19797 | 43.14644 | 1810 ft | 156 kts | 302° |
| 2026-05-07 15:35 | 44.20367 | 43.13391 | 1601 ft | 155 kts | 301° |
| 2026-05-07 15:35 | 44.20934 | 43.12131 | 1404 ft | 154 kts | 302° |
| 2026-05-07 15:35 | 44.21506 | 43.10886 | 1172 ft | 151 kts | 302° |
| 2026-05-07 15:36 | 44.22064 | 43.09659 | 1058 ft | 144 kts | 302° |
| 2026-05-07 15:36 | 44.22527 | 43.08630 | 1052 ft | 98 kts | 302° |
| 2026-05-07 15:36 | 44.22785 | 43.08063 | 1047 ft | 48 kts | 302° |
| 2026-05-07 15:36 | 44.22948 | 43.07705 | 1048 ft | 41 kts | 301° |
| 2026-05-07 15:37 | 44.22997 | 43.07540 | 1049 ft | 8 kts | 284° |
| 2026-05-07 15:37 | 44.23016 | 43.07417 | 1050 ft | 17 kts | 278° |
| 2026-05-07 15:37 | 44.23022 | 43.07217 | 1048 ft | 24 kts | 272° |
| 2026-05-07 15:37 | 44.23012 | 43.07074 | 1048 ft | 10 kts | 220° |
| 2026-05-07 15:38 | 44.22924 | 43.07072 | 1048 ft | 18 kts | 167° |
| 2026-05-07 15:38 | 44.22775 | 43.07120 | 1048 ft | 26 kts | 168° |
| 2026-05-07 15:38 | 44.22643 | 43.07202 | 1048 ft | 20 kts | 124° |
| 2026-05-07 15:38 | 44.22565 | 43.07379 | 1048 ft | 23 kts | 122° |
| 2026-05-07 15:39 | 44.22475 | 43.07575 | 1048 ft | 26 kts | 122° |
| 2026-05-07 15:39 | 44.22376 | 43.07796 | 1048 ft | 28 kts | 122° |
| 2026-05-07 15:39 | 44.22267 | 43.08036 | 1048 ft | 30 kts | 122° |
| 2026-05-07 15:39 | 44.22152 | 43.08294 | 1048 ft | 32 kts | 122° |
| 2026-05-07 15:40 | 44.22069 | 43.08478 | 1048 ft | 0 kts | 122° |
| 2026-05-07 15:40 | 44.22054 | 43.08512 | 1048 ft | 10 kts | 122° |
| 2026-05-07 15:40 | 44.22012 | 43.08615 | 1048 ft | 14 kts | 108° |
| 2026-05-07 15:40 | 44.22010 | 43.08636 | 1048 ft | 3 kts | 94° |
| 2026-05-07 15:41 | 44.21993 | 43.08699 | 1048 ft | 13 kts | 119° |
| 2026-05-07 15:41 | 44.21939 | 43.08818 | 1048 ft | 6 kts | 124° |
| 2026-05-07 15:41 | 44.21901 | 43.08833 | 1048 ft | 7 kts | 213° |
| 2026-05-07 15:41 | 44.21863 | 43.08799 | 1048 ft | 0 kts | 212° |
| 2026-05-07 15:57 | 44.21864 | 43.08799 | 1048 ft | 0 kts | 212° |